AZU2129 SBSV-SBSP
Flight info
| Callsign | AZU2129 |
|---|---|
| Flight time | N/A |
| Altitude | 34000 |
| Route | GEKEV UZ30 ENTIT |
| Aircraft | E195/M-SDE3GILORVW/S |
Departure
| Time | N/A |
|---|---|
| Airport | Deputado Luiz Eduardo Magalhães International Airport (SBSV) |
Arrival
| Time | 2026-05-03 21:32 |
|---|---|
| Airport | Congonhas–Deputado Freitas Nobre Airport (SBSP) |
| Time | Latitude | Longitude | Altitude | Speed | Heading |
|---|---|---|---|---|---|
| 2026-05-03 20:15 | -16.59208 | -42.40967 | 34000 ft | 452 kts | 218° |
| 2026-05-03 20:15 | -16.64062 | -42.45123 | 34001 ft | 451 kts | 219° |
| 2026-05-03 20:16 | -16.68961 | -42.49198 | 34000 ft | 450 kts | 218° |
| 2026-05-03 20:16 | -16.73906 | -42.53252 | 34008 ft | 456 kts | 218° |
| 2026-05-03 20:17 | -16.78906 | -42.57367 | 33999 ft | 459 kts | 218° |
| 2026-05-03 20:17 | -16.83073 | -42.60799 | 34000 ft | 459 kts | 218° |
| 2026-05-03 20:18 | -16.88087 | -42.64934 | 33999 ft | 459 kts | 218° |
| 2026-05-03 20:18 | -16.93095 | -42.69069 | 33996 ft | 459 kts | 218° |
| 2026-05-03 20:19 | -16.98104 | -42.73207 | 33998 ft | 458 kts | 218° |
| 2026-05-03 20:19 | -17.03093 | -42.77331 | 33998 ft | 457 kts | 218° |
| 2026-05-03 20:20 | -17.08068 | -42.81445 | 33998 ft | 456 kts | 218° |
| 2026-05-03 20:20 | -17.13039 | -42.85559 | 34001 ft | 456 kts | 218° |
| 2026-05-03 20:21 | -17.17973 | -42.89646 | 34002 ft | 456 kts | 218° |
| 2026-05-03 20:21 | -17.22942 | -42.93765 | 33998 ft | 456 kts | 218° |
| 2026-05-03 20:22 | -17.27909 | -42.97885 | 33998 ft | 456 kts | 218° |
| 2026-05-03 20:22 | -17.32881 | -43.02012 | 34003 ft | 456 kts | 218° |
| 2026-05-03 20:23 | -17.37852 | -43.06141 | 33999 ft | 456 kts | 218° |
| 2026-05-03 20:23 | -17.42829 | -43.10278 | 34000 ft | 457 kts | 218° |
| 2026-05-03 20:24 | -17.47806 | -43.14419 | 34001 ft | 457 kts | 218° |
| 2026-05-03 20:24 | -17.52791 | -43.18568 | 34000 ft | 458 kts | 218° |
| 2026-05-03 20:25 | -17.57777 | -43.22727 | 34001 ft | 458 kts | 218° |
| 2026-05-03 20:25 | -17.62762 | -43.26892 | 34002 ft | 458 kts | 218° |
| 2026-05-03 20:26 | -17.67749 | -43.31062 | 34001 ft | 458 kts | 218° |
| 2026-05-03 20:26 | -17.72730 | -43.35231 | 33998 ft | 458 kts | 218° |
| 2026-05-03 20:27 | -17.77706 | -43.39398 | 34000 ft | 458 kts | 218° |
| 2026-05-03 20:27 | -17.82687 | -43.43571 | 34002 ft | 458 kts | 218° |
| 2026-05-03 20:28 | -17.87665 | -43.47744 | 33998 ft | 458 kts | 218° |
| 2026-05-03 20:28 | -17.92632 | -43.51913 | 34002 ft | 457 kts | 218° |
| 2026-05-03 20:29 | -17.97597 | -43.56082 | 33999 ft | 457 kts | 219° |
| 2026-05-03 20:29 | -18.02557 | -43.60250 | 33998 ft | 457 kts | 219° |
| 2026-05-03 20:30 | -18.07520 | -43.64424 | 33999 ft | 458 kts | 219° |
| 2026-05-03 20:30 | -18.12495 | -43.68611 | 34002 ft | 458 kts | 219° |
| 2026-05-03 20:31 | -18.17482 | -43.72807 | 34000 ft | 460 kts | 219° |
| 2026-05-03 20:31 | -18.22475 | -43.77015 | 33998 ft | 461 kts | 219° |
| 2026-05-03 20:32 | -18.27487 | -43.81239 | 33999 ft | 462 kts | 219° |
| 2026-05-03 20:32 | -18.32465 | -43.85438 | 34001 ft | 461 kts | 219° |
| 2026-05-03 20:33 | -18.37474 | -43.89665 | 33999 ft | 461 kts | 219° |
| 2026-05-03 20:33 | -18.42484 | -43.93892 | 33996 ft | 461 kts | 219° |
| 2026-05-03 20:34 | -18.47494 | -43.98125 | 34001 ft | 462 kts | 219° |
| 2026-05-03 20:34 | -18.52493 | -44.02351 | 34000 ft | 459 kts | 219° |
| 2026-05-03 20:35 | -18.57465 | -44.06557 | 34000 ft | 457 kts | 219° |
| 2026-05-03 20:35 | -18.62422 | -44.10752 | 34000 ft | 457 kts | 219° |
| 2026-05-03 20:36 | -18.67370 | -44.14945 | 34000 ft | 456 kts | 219° |
| 2026-05-03 20:36 | -18.72308 | -44.19133 | 33999 ft | 455 kts | 219° |
| 2026-05-03 20:37 | -18.77238 | -44.23316 | 33997 ft | 455 kts | 219° |
| 2026-05-03 20:37 | -18.82160 | -44.27499 | 34001 ft | 454 kts | 219° |
| 2026-05-03 20:38 | -18.87080 | -44.31689 | 34001 ft | 454 kts | 219° |
| 2026-05-03 20:38 | -18.91993 | -44.35875 | 34000 ft | 454 kts | 219° |
| 2026-05-03 20:39 | -18.96908 | -44.40067 | 33999 ft | 454 kts | 219° |
| 2026-05-03 20:39 | -19.01826 | -44.44264 | 34001 ft | 455 kts | 219° |
| 2026-05-03 20:40 | -19.06746 | -44.48461 | 34000 ft | 455 kts | 219° |
| 2026-05-03 20:40 | -19.11674 | -44.52667 | 34000 ft | 455 kts | 219° |
| 2026-05-03 20:41 | -19.16568 | -44.56850 | 34000 ft | 455 kts | 219° |
| 2026-05-03 20:41 | -19.21526 | -44.61092 | 34001 ft | 455 kts | 219° |
| 2026-05-03 20:42 | -19.26446 | -44.65303 | 34000 ft | 455 kts | 219° |
| 2026-05-03 20:42 | -19.31335 | -44.69488 | 33999 ft | 455 kts | 219° |
| 2026-05-03 20:43 | -19.36252 | -44.73701 | 34000 ft | 455 kts | 219° |
| 2026-05-03 20:43 | -19.41171 | -44.77920 | 34001 ft | 455 kts | 219° |
| 2026-05-03 20:44 | -19.46089 | -44.82140 | 34001 ft | 455 kts | 219° |
| 2026-05-03 20:44 | -19.51013 | -44.86368 | 34000 ft | 455 kts | 219° |
| 2026-05-03 20:45 | -19.55925 | -44.90595 | 34000 ft | 455 kts | 219° |
| 2026-05-03 20:45 | -19.60835 | -44.94833 | 33999 ft | 455 kts | 219° |
| 2026-05-03 20:46 | -19.65744 | -44.99074 | 33999 ft | 455 kts | 219° |
| 2026-05-03 20:46 | -19.70652 | -45.03317 | 34001 ft | 455 kts | 219° |
| 2026-05-03 20:47 | -19.75560 | -45.07562 | 33998 ft | 455 kts | 219° |
| 2026-05-03 20:47 | -19.80467 | -45.11809 | 34001 ft | 455 kts | 219° |
| 2026-05-03 20:48 | -19.85377 | -45.16062 | 33998 ft | 455 kts | 219° |
| 2026-05-03 20:48 | -19.90288 | -45.20320 | 33998 ft | 456 kts | 219° |
| 2026-05-03 20:49 | -19.95206 | -45.24587 | 34000 ft | 457 kts | 219° |
| 2026-05-03 20:49 | -20.00128 | -45.28860 | 34001 ft | 457 kts | 219° |
| 2026-05-03 20:50 | -20.05056 | -45.33142 | 34001 ft | 458 kts | 219° |
| 2026-05-03 20:50 | -20.09987 | -45.37430 | 33999 ft | 458 kts | 219° |
| 2026-05-03 20:51 | -20.14886 | -45.41695 | 34001 ft | 458 kts | 219° |
| 2026-05-03 20:51 | -20.19816 | -45.45991 | 34001 ft | 458 kts | 219° |
| 2026-05-03 20:52 | -20.24742 | -45.50286 | 34001 ft | 458 kts | 219° |
| 2026-05-03 20:52 | -20.29669 | -45.54587 | 33998 ft | 458 kts | 219° |
| 2026-05-03 20:53 | -20.34593 | -45.58889 | 33998 ft | 457 kts | 219° |
| 2026-05-03 20:53 | -20.39512 | -45.63193 | 33999 ft | 457 kts | 219° |
| 2026-05-03 20:54 | -20.44427 | -45.67496 | 34002 ft | 457 kts | 219° |
| 2026-05-03 20:54 | -20.51800 | -45.73958 | 34001 ft | 458 kts | 219° |
| 2026-05-03 20:55 | -20.56719 | -45.78273 | 34000 ft | 458 kts | 219° |
| 2026-05-03 20:55 | -20.61640 | -45.82595 | 33998 ft | 458 kts | 219° |
| 2026-05-03 20:56 | -20.66557 | -45.86917 | 33998 ft | 458 kts | 219° |
| 2026-05-03 20:56 | -20.71475 | -45.91243 | 33999 ft | 458 kts | 219° |
| 2026-05-03 20:57 | -20.76391 | -45.95570 | 33999 ft | 458 kts | 219° |
| 2026-05-03 20:57 | -20.81309 | -45.99900 | 34001 ft | 458 kts | 219° |
| 2026-05-03 20:58 | -20.86228 | -46.04235 | 34000 ft | 458 kts | 219° |
| 2026-05-03 20:58 | -20.91110 | -46.08543 | 34000 ft | 458 kts | 219° |
| 2026-05-03 20:59 | -20.96021 | -46.12874 | 34000 ft | 458 kts | 218° |
| 2026-05-03 20:59 | -20.98726 | -46.14652 | 34016 ft | 457 kts | 203° |
| 2026-05-03 20:59 | -21.01708 | -46.15805 | 34027 ft | 456 kts | 198° |
| 2026-05-03 21:00 | -21.05757 | -46.17212 | 33992 ft | 458 kts | 198° |
| 2026-05-03 21:00 | -21.13810 | -46.20037 | 34000 ft | 458 kts | 198° |
| 2026-05-03 21:01 | -21.19873 | -46.22150 | 33999 ft | 458 kts | 197° |
| 2026-05-03 21:01 | -21.25952 | -46.24202 | 33998 ft | 458 kts | 197° |
| 2026-05-03 21:02 | -21.32031 | -46.26267 | 34000 ft | 458 kts | 198° |
| 2026-05-03 21:02 | -21.38114 | -46.28339 | 34000 ft | 459 kts | 198° |
| 2026-05-03 21:03 | -21.44193 | -46.30414 | 33997 ft | 459 kts | 198° |
| 2026-05-03 21:03 | -21.50271 | -46.32490 | 33997 ft | 458 kts | 198° |
| 2026-05-03 21:04 | -21.56347 | -46.34567 | 33996 ft | 458 kts | 198° |
| 2026-05-03 21:04 | -21.62432 | -46.36648 | 33998 ft | 459 kts | 198° |
| 2026-05-03 21:05 | -21.68513 | -46.38761 | 34001 ft | 460 kts | 199° |
| 2026-05-03 21:05 | -21.74561 | -46.41013 | 34002 ft | 460 kts | 199° |
| 2026-05-03 21:06 | -21.79586 | -46.42872 | 33997 ft | 459 kts | 199° |
| 2026-05-03 21:06 | -21.85640 | -46.45105 | 33977 ft | 460 kts | 199° |
| 2026-05-03 21:07 | -21.91700 | -46.47338 | 33979 ft | 461 kts | 199° |
| 2026-05-03 21:07 | -21.97777 | -46.49579 | 33980 ft | 462 kts | 199° |
| 2026-05-03 21:08 | -22.03855 | -46.51823 | 33867 ft | 456 kts | 199° |
| 2026-05-03 21:08 | -22.06816 | -46.52918 | 33504 ft | 442 kts | 199° |
| 2026-05-03 21:08 | -22.09687 | -46.53980 | 33033 ft | 432 kts | 199° |
| 2026-05-03 21:09 | -22.12516 | -46.55025 | 32421 ft | 427 kts | 199° |
| 2026-05-03 21:09 | -22.15307 | -46.56057 | 31828 ft | 421 kts | 199° |
| 2026-05-03 21:09 | -22.18058 | -46.57074 | 31287 ft | 415 kts | 199° |
| 2026-05-03 21:09 | -22.20769 | -46.58077 | 30737 ft | 409 kts | 199° |
| 2026-05-03 21:10 | -22.23440 | -46.59066 | 30193 ft | 403 kts | 199° |
| 2026-05-03 21:10 | -22.26076 | -46.60042 | 29658 ft | 398 kts | 199° |
| 2026-05-03 21:10 | -22.28680 | -46.61006 | 29135 ft | 395 kts | 199° |
| 2026-05-03 21:10 | -22.31290 | -46.61973 | 28616 ft | 399 kts | 199° |
| 2026-05-03 21:11 | -22.33927 | -46.62950 | 28067 ft | 402 kts | 199° |
| 2026-05-03 21:11 | -22.36573 | -46.63931 | 27538 ft | 401 kts | 199° |
| 2026-05-03 21:11 | -22.39202 | -46.64907 | 26999 ft | 398 kts | 199° |
| 2026-05-03 21:11 | -22.41707 | -46.66125 | 26488 ft | 393 kts | 212° |
| 2026-05-03 21:12 | -22.43845 | -46.67935 | 25974 ft | 390 kts | 222° |
| 2026-05-03 21:12 | -22.45832 | -46.69921 | 25425 ft | 388 kts | 223° |
| 2026-05-03 21:12 | -22.47794 | -46.71894 | 24932 ft | 383 kts | 223° |
| 2026-05-03 21:12 | -22.49721 | -46.73811 | 24429 ft | 380 kts | 223° |
| 2026-05-03 21:13 | -22.51644 | -46.75748 | 23921 ft | 376 kts | 223° |
| 2026-05-03 21:13 | -22.53546 | -46.77676 | 23425 ft | 373 kts | 223° |
| 2026-05-03 21:13 | -22.55428 | -46.79579 | 23138 ft | 366 kts | 223° |
| 2026-05-03 21:13 | -22.57281 | -46.81456 | 22987 ft | 365 kts | 223° |
| 2026-05-03 21:14 | -22.59164 | -46.83364 | 22981 ft | 368 kts | 223° |
| 2026-05-03 21:14 | -22.61015 | -46.85236 | 22979 ft | 370 kts | 223° |
| 2026-05-03 21:14 | -22.62895 | -46.87141 | 22977 ft | 371 kts | 223° |
| 2026-05-03 21:14 | -22.64782 | -46.89053 | 22978 ft | 371 kts | 223° |
| 2026-05-03 21:15 | -22.66673 | -46.90966 | 22528 ft | 378 kts | 223° |
| 2026-05-03 21:15 | -22.68736 | -46.92648 | 21893 ft | 361 kts | 213° |
| 2026-05-03 21:15 | -22.70833 | -46.94088 | 21641 ft | 358 kts | 212° |
| 2026-05-03 21:15 | -22.72940 | -46.95530 | 21645 ft | 357 kts | 212° |
| 2026-05-03 21:16 | -22.75036 | -46.96960 | 21656 ft | 359 kts | 212° |
| 2026-05-03 21:16 | -22.77160 | -46.98411 | 21280 ft | 360 kts | 212° |
| 2026-05-03 21:16 | -22.79276 | -46.99852 | 20961 ft | 359 kts | 212° |
| 2026-05-03 21:16 | -22.81384 | -47.01290 | 20668 ft | 358 kts | 212° |
| 2026-05-03 21:17 | -22.83488 | -47.02728 | 20365 ft | 357 kts | 212° |
| 2026-05-03 21:17 | -22.84874 | -47.03673 | 20180 ft | 355 kts | 212° |
| 2026-05-03 21:17 | -22.87669 | -47.05583 | 19729 ft | 354 kts | 212° |
| 2026-05-03 21:17 | -22.89731 | -47.06992 | 19268 ft | 352 kts | 212° |
| 2026-05-03 21:18 | -22.91799 | -47.08388 | 18812 ft | 349 kts | 212° |
| 2026-05-03 21:18 | -22.93882 | -47.09795 | 18227 ft | 346 kts | 212° |
| 2026-05-03 21:18 | -22.95911 | -47.11167 | 17713 ft | 342 kts | 212° |
| 2026-05-03 21:18 | -22.97921 | -47.12525 | 17191 ft | 339 kts | 212° |
| 2026-05-03 21:19 | -22.99916 | -47.13878 | 16704 ft | 336 kts | 212° |
| 2026-05-03 21:19 | -23.02008 | -47.14973 | 16221 ft | 335 kts | 195° |
| 2026-05-03 21:19 | -23.04307 | -47.15165 | 15805 ft | 332 kts | 173° |
| 2026-05-03 21:19 | -23.06571 | -47.14700 | 15358 ft | 331 kts | 167° |
| 2026-05-03 21:20 | -23.08806 | -47.14142 | 14896 ft | 328 kts | 167° |
| 2026-05-03 21:20 | -23.11025 | -47.13617 | 14474 ft | 323 kts | 168° |
| 2026-05-03 21:20 | -23.13183 | -47.13161 | 14032 ft | 309 kts | 169° |
| 2026-05-03 21:20 | -23.15263 | -47.12735 | 13653 ft | 300 kts | 169° |
| 2026-05-03 21:21 | -23.17300 | -47.12300 | 13256 ft | 297 kts | 169° |
| 2026-05-03 21:21 | -23.19323 | -47.11863 | 12863 ft | 296 kts | 168° |
| 2026-05-03 21:21 | -23.21352 | -47.11421 | 12519 ft | 296 kts | 172° |
| 2026-05-03 21:21 | -23.23410 | -47.10993 | 12308 ft | 306 kts | 171° |
| 2026-05-03 21:22 | -23.25500 | -47.10516 | 11834 ft | 305 kts | 171° |
| 2026-05-03 21:22 | -23.27565 | -47.10036 | 11412 ft | 303 kts | 171° |
| 2026-05-03 21:22 | -23.29623 | -47.09588 | 11007 ft | 301 kts | 172° |
| 2026-05-03 21:22 | -23.31673 | -47.09147 | 10578 ft | 300 kts | 172° |
| 2026-05-03 21:23 | -23.33719 | -47.08702 | 10171 ft | 299 kts | 171° |
| 2026-05-03 21:23 | -23.35759 | -47.08257 | 9745 ft | 298 kts | 171° |
| 2026-05-03 21:23 | -23.37776 | -47.07816 | 9376 ft | 295 kts | 171° |
| 2026-05-03 21:23 | -23.39778 | -47.07375 | 9054 ft | 292 kts | 170° |
| 2026-05-03 21:24 | -23.41690 | -47.06681 | 8783 ft | 293 kts | 149° |
| 2026-05-03 21:24 | -23.43074 | -47.05088 | 8542 ft | 292 kts | 117° |
| 2026-05-03 21:24 | -23.43697 | -47.03029 | 8407 ft | 292 kts | 103° |
| 2026-05-03 21:24 | -23.44136 | -47.00872 | 8158 ft | 290 kts | 102° |
| 2026-05-03 21:25 | -23.44599 | -46.98743 | 7948 ft | 288 kts | 104° |
| 2026-05-03 21:25 | -23.45112 | -46.96639 | 7754 ft | 286 kts | 105° |
| 2026-05-03 21:25 | -23.45637 | -46.94580 | 7563 ft | 280 kts | 105° |
| 2026-05-03 21:25 | -23.46156 | -46.92582 | 7351 ft | 265 kts | 105° |
| 2026-05-03 21:26 | -23.46645 | -46.90716 | 7162 ft | 248 kts | 105° |
| 2026-05-03 21:26 | -23.47115 | -46.88931 | 7012 ft | 241 kts | 105° |
| 2026-05-03 21:26 | -23.47591 | -46.87196 | 6897 ft | 235 kts | 106° |
| 2026-05-03 21:26 | -23.48042 | -46.85540 | 6715 ft | 217 kts | 106° |
| 2026-05-03 21:27 | -23.48444 | -46.84017 | 6584 ft | 210 kts | 105° |
| 2026-05-03 21:27 | -23.48840 | -46.82491 | 6446 ft | 211 kts | 105° |
| 2026-05-03 21:27 | -23.49240 | -46.80948 | 6224 ft | 210 kts | 105° |
| 2026-05-03 21:27 | -23.49632 | -46.79422 | 5986 ft | 207 kts | 105° |
| 2026-05-03 21:28 | -23.50019 | -46.77913 | 5763 ft | 206 kts | 107° |
| 2026-05-03 21:28 | -23.50411 | -46.76419 | 5580 ft | 206 kts | 107° |
| 2026-05-03 21:28 | -23.50814 | -46.74942 | 5237 ft | 206 kts | 111° |
| 2026-05-03 21:28 | -23.51538 | -46.73652 | 4948 ft | 195 kts | 133° |
| 2026-05-03 21:29 | -23.52553 | -46.72703 | 4679 ft | 191 kts | 144° |
| 2026-05-03 21:29 | -23.53666 | -46.71929 | 4413 ft | 188 kts | 147° |
| 2026-05-03 21:29 | -23.54749 | -46.71167 | 4212 ft | 179 kts | 144° |
| 2026-05-03 21:29 | -23.55758 | -46.70444 | 3980 ft | 169 kts | 146° |
| 2026-05-03 21:30 | -23.56695 | -46.69796 | 3885 ft | 154 kts | 146° |
| 2026-05-03 21:30 | -23.57581 | -46.69186 | 3700 ft | 147 kts | 143° |
| 2026-05-03 21:30 | -23.58405 | -46.68607 | 3512 ft | 134 kts | 145° |
| 2026-05-03 21:30 | -23.59188 | -46.68064 | 3335 ft | 137 kts | 146° |
| 2026-05-03 21:31 | -23.59980 | -46.67517 | 3123 ft | 132 kts | 147° |
| 2026-05-03 21:31 | -23.60748 | -46.66987 | 2947 ft | 131 kts | 148° |
| 2026-05-03 21:31 | -23.61523 | -46.66441 | 2783 ft | 135 kts | 147° |
| 2026-05-03 21:31 | -23.62301 | -46.65899 | 2619 ft | 130 kts | 149° |
| 2026-05-03 21:32 | -23.62971 | -46.65449 | 2608 ft | 83 kts | 148° |
| 2026-05-03 21:32 | -23.63256 | -46.65254 | 2608 ft | 37 kts | 145° |
| 2026-05-03 21:32 | -23.63368 | -46.65229 | 2604 ft | 8 kts | 190° |
| 2026-05-03 21:32 | -23.63379 | -46.65232 | 2603 ft | 3 kts | 197° |
| 2026-05-03 21:33 | -23.63399 | -46.65253 | 2601 ft | 4 kts | 248° |
| 2026-05-03 21:33 | -23.63391 | -46.65281 | 2601 ft | 5 kts | 300° |
| 2026-05-03 21:33 | -23.63345 | -46.65325 | 2601 ft | 13 kts | 325° |
| 2026-05-03 21:33 | -23.63251 | -46.65392 | 2601 ft | 20 kts | 327° |
| 2026-05-03 21:34 | -23.63115 | -46.65484 | 2601 ft | 26 kts | 329° |
| 2026-05-03 21:34 | -23.62949 | -46.65591 | 2600 ft | 22 kts | 329° |
| 2026-05-03 21:34 | -23.62811 | -46.65678 | 2601 ft | 14 kts | 329° |
| 2026-05-03 21:34 | -23.62731 | -46.65731 | 2600 ft | 12 kts | 326° |
| 2026-05-03 21:35 | -23.62664 | -46.65776 | 2600 ft | 10 kts | 329° |
| 2026-05-03 21:35 | -23.62646 | -46.65800 | 2600 ft | 1 kts | 249° |
| 2026-05-03 21:35 | -23.62657 | -46.65806 | 2600 ft | 3 kts | 209° |
| 2026-05-03 21:35 | -23.62673 | -46.65821 | 2599 ft | 3 kts | 230° |
| 2026-05-03 21:36 | -23.62685 | -46.65839 | 2599 ft | 1 kts | 235° |
| 2026-05-03 21:36 | -23.62687 | -46.65842 | 2599 ft | 0 kts | 235° |